sensor_id;sensor_type;location;lat;lon;timestamp;pressure;altitude;pressure_sealevel;temperature;humidity
8286;BME280;4181;43.416;24.598;2022-12-31T00:02:00;101084.38;;;9.82;100.00
8286;BME280;4181;43.416;24.598;2022-12-31T00:04:25;101085.81;;;9.84;100.00
8286;BME280;4181;43.416;24.598;2022-12-31T00:06:50;101087.03;;;9.88;100.00
8286;BME280;4181;43.416;24.598;2022-12-31T00:09:16;101081.81;;;9.87;100.00
8286;BME280;4181;43.416;24.598;2022-12-31T00:11:41;101090.03;;;9.80;100.00
8286;BME280;4181;43.416;24.598;2022-12-31T00:14:07;101098.44;;;9.79;100.00
8286;BME280;4181;43.416;24.598;2022-12-31T00:16:35;101100.72;;;9.82;100.00
8286;BME280;4181;43.416;24.598;2022-12-31T00:19:03;101096.97;;;9.83;100.00
8286;BME280;4181;43.416;24.598;2022-12-31T00:21:30;101096.34;;;9.81;100.00
8286;BME280;4181;43.416;24.598;2022-12-31T00:23:57;101106.00;;;9.77;100.00
8286;BME280;4181;43.416;24.598;2022-12-31T00:26:25;101101.16;;;9.79;100.00
8286;BME280;4181;43.416;24.598;2022-12-31T00:28:53;101100.88;;;9.87;100.00
8286;BME280;4181;43.416;24.598;2022-12-31T00:31:24;101108.44;;;9.85;100.00
8286;BME280;4181;43.416;24.598;2022-12-31T00:33:50;101124.84;;;9.78;100.00
8286;BME280;4181;43.416;24.598;2022-12-31T00:36:18;101124.03;;;9.78;100.00
8286;BME280;4181;43.416;24.598;2022-12-31T00:38:46;101131.22;;;9.72;100.00
8286;BME280;4181;43.416;24.598;2022-12-31T00:41:14;101123.47;;;9.38;100.00
8286;BME280;4181;43.416;24.598;2022-12-31T00:43:40;101120.63;;;9.27;100.00
8286;BME280;4181;43.416;24.598;2022-12-31T00:46:06;101124.38;;;9.32;100.00
8286;BME280;4181;43.416;24.598;2022-12-31T00:48:33;101123.53;;;9.32;100.00
8286;BME280;4181;43.416;24.598;2022-12-31T00:50:59;101125.66;;;9.23;100.00
8286;BME280;4181;43.416;24.598;2022-12-31T00:53:26;101121.47;;;9.27;100.00
8286;BME280;4181;43.416;24.598;2022-12-31T00:55:51;101124.41;;;9.26;100.00
8286;BME280;4181;43.416;24.598;2022-12-31T00:58:17;101124.41;;;9.26;100.00
8286;BME280;4181;43.416;24.598;2022-12-31T01:00:43;101119.13;;;9.31;100.00
8286;BME280;4181;43.416;24.598;2022-12-31T01:03:08;101114.31;;;9.33;100.00
8286;BME280;4181;43.416;24.598;2022-12-31T01:05:35;101117.22;;;9.38;100.00
8286;BME280;4181;43.416;24.598;2022-12-31T01:08:01;101117.22;;;9.38;100.00
8286;BME280;4181;43.416;24.598;2022-12-31T01:10:27;101121.81;;;9.37;100.00
8286;BME280;4181;43.416;24.598;2022-12-31T01:13:11;101130.66;;;9.33;100.00
8286;BME280;4181;43.416;24.598;2022-12-31T01:15:37;101127.94;;;9.33;100.00
8286;BME280;4181;43.416;24.598;2022-12-31T01:18:05;101131.25;;;9.35;100.00
8286;BME280;4181;43.416;24.598;2022-12-31T01:20:35;101123.25;;;9.40;100.00
8286;BME280;4181;43.416;24.598;2022-12-31T01:23:00;101120.97;;;9.37;100.00
8286;BME280;4181;43.416;24.598;2022-12-31T01:25:26;101129.53;;;9.40;100.00
8286;BME280;4181;43.416;24.598;2022-12-31T01:27:52;101137.28;;;9.43;100.00
8286;BME280;4181;43.416;24.598;2022-12-31T01:30:17;101137.75;;;9.34;100.00
8286;BME280;4181;43.416;24.598;2022-12-31T01:32:43;101147.41;;;9.30;100.00
8286;BME280;4181;43.416;24.598;2022-12-31T01:35:08;101151.28;;;9.16;100.00
8286;BME280;4181;43.416;24.598;2022-12-31T01:37:34;101137.47;;;9.11;100.00
8286;BME280;4181;43.416;24.598;2022-12-31T01:39:59;101136.59;;;9.17;100.00
8286;BME280;4181;43.416;24.598;2022-12-31T01:42:24;101135.13;;;9.21;100.00
8286;BME280;4181;43.416;24.598;2022-12-31T01:44:53;101129.03;;;9.19;100.00
8286;BME280;4181;43.416;24.598;2022-12-31T01:47:29;101144.22;;;9.02;100.00
8286;BME280;4181;43.416;24.598;2022-12-31T01:50:32;101147.38;;;8.98;100.00
8286;BME280;4181;43.416;24.598;2022-12-31T01:52:54;101160.78;;;8.93;100.00
8286;BME280;4181;43.416;24.598;2022-12-31T01:55:29;101160.16;;;8.91;100.00
8286;BME280;4181;43.416;24.598;2022-12-31T01:58:03;101154.69;;;8.98;100.00
8286;BME280;4181;43.416;24.598;2022-12-31T02:00:31;101158.03;;;9.00;100.00
8286;BME280;4181;43.416;24.598;2022-12-31T02:02:57;101166.41;;;8.98;100.00
8286;BME280;4181;43.416;24.598;2022-12-31T02:08:04;101164.84;;;8.71;100.00
8286;BME280;4181;43.416;24.598;2022-12-31T02:10:30;101168.88;;;8.56;100.00
8286;BME280;4181;43.416;24.598;2022-12-31T02:12:56;101163.47;;;8.49;100.00
8286;BME280;4181;43.416;24.598;2022-12-31T02:26:52;101150.44;;;8.71;100.00
8286;BME280;4181;43.416;24.598;2022-12-31T02:29:57;101149.38;;;8.65;100.00
8286;BME280;4181;43.416;24.598;2022-12-31T02:32:41;101150.00;;;8.67;100.00
8286;BME280;4181;43.416;24.598;2022-12-31T02:37:41;101162.84;;;8.47;100.00
8286;BME280;4181;43.416;24.598;2022-12-31T02:40:10;101160.97;;;8.15;100.00
8286;BME280;4181;43.416;24.598;2022-12-31T02:42:38;101154.47;;;8.16;100.00
8286;BME280;4181;43.416;24.598;2022-12-31T02:45:04;101146.97;;;8.25;100.00
8286;BME280;4181;43.416;24.598;2022-12-31T02:50:42;101148.81;;;8.50;100.00
8286;BME280;4181;43.416;24.598;2022-12-31T02:53:29;101153.03;;;8.33;100.00
8286;BME280;4181;43.416;24.598;2022-12-31T02:56:17;101154.91;;;8.26;100.00
8286;BME280;4181;43.416;24.598;2022-12-31T03:01:42;101160.09;;;8.21;100.00
8286;BME280;4181;43.416;24.598;2022-12-31T03:04:28;101162.84;;;8.08;100.00
8286;BME280;4181;43.416;24.598;2022-12-31T03:07:01;101155.09;;;8.18;100.00
8286;BME280;4181;43.416;24.598;2022-12-31T03:09:28;101158.22;;;8.22;100.00
8286;BME280;4181;43.416;24.598;2022-12-31T03:11:53;101165.19;;;8.24;100.00
8286;BME280;4181;43.416;24.598;2022-12-31T03:14:37;101158.03;;;8.36;100.00
8286;BME280;4181;43.416;24.598;2022-12-31T03:17:02;101157.22;;;8.29;100.00
8286;BME280;4181;43.416;24.598;2022-12-31T03:19:28;101158.66;;;8.19;100.00
8286;BME280;4181;43.416;24.598;2022-12-31T03:22:12;101159.31;;;8.27;100.00
8286;BME280;4181;43.416;24.598;2022-12-31T03:24:58;101154.50;;;8.29;100.00
8286;BME280;4181;43.416;24.598;2022-12-31T03:27:43;101149.66;;;8.31;100.00
8286;BME280;4181;43.416;24.598;2022-12-31T03:30:10;101149.06;;;8.29;100.00
8286;BME280;4181;43.416;24.598;2022-12-31T03:32:36;101168.31;;;8.34;100.00
8286;BME280;4181;43.416;24.598;2022-12-31T03:35:01;101162.88;;;8.34;100.00
8286;BME280;4181;43.416;24.598;2022-12-31T03:37:27;101162.22;;;8.32;100.00
8286;BME280;4181;43.416;24.598;2022-12-31T03:39:52;101167.03;;;8.30;100.00
8286;BME280;4181;43.416;24.598;2022-12-31T03:42:18;101164.09;;;8.38;100.00
8286;BME280;4181;43.416;24.598;2022-12-31T03:44:43;101166.38;;;8.48;100.00
8286;BME280;4181;43.416;24.598;2022-12-31T03:47:08;101173.69;;;8.54;100.00
8286;BME280;4181;43.416;24.598;2022-12-31T03:49:34;101161.13;;;8.53;100.00
8286;BME280;4181;43.416;24.598;2022-12-31T03:51:59;101187.09;;;8.55;100.00
8286;BME280;4181;43.416;24.598;2022-12-31T03:54:27;101179.97;;;8.54;100.00
8286;BME280;4181;43.416;24.598;2022-12-31T03:56:52;101186.69;;;8.45;100.00
8286;BME280;4181;43.416;24.598;2022-12-31T03:59:18;101191.72;;;8.35;100.00
8286;BME280;4181;43.416;24.598;2022-12-31T04:01:43;101193.59;;;8.28;100.00
8286;BME280;4181;43.416;24.598;2022-12-31T04:04:09;101190.44;;;8.31;100.00
8286;BME280;4181;43.416;24.598;2022-12-31T04:06:34;101202.38;;;8.30;100.00
8286;BME280;4181;43.416;24.598;2022-12-31T04:09:00;101193.41;;;8.23;100.00
8286;BME280;4181;43.416;24.598;2022-12-31T04:11:25;101213.03;;;8.12;100.00
8286;BME280;4181;43.416;24.598;2022-12-31T04:13:50;101213.03;;;7.99;100.00
8286;BME280;4181;43.416;24.598;2022-12-31T04:16:16;101213.84;;;7.93;100.00
8286;BME280;4181;43.416;24.598;2022-12-31T04:18:41;101214.28;;;7.90;100.00
8286;BME280;4181;43.416;24.598;2022-12-31T04:21:07;101214.25;;;7.64;100.00
8286;BME280;4181;43.416;24.598;2022-12-31T04:23:32;101207.13;;;7.76;100.00
8286;BME280;4181;43.416;24.598;2022-12-31T04:25:57;101209.66;;;7.71;100.00
8286;BME280;4181;43.416;24.598;2022-12-31T04:28:23;101203.19;;;7.72;100.00
8286;BME280;4181;43.416;24.598;2022-12-31T04:30:48;101202.97;;;7.67;100.00
8286;BME280;4181;43.416;24.598;2022-12-31T04:33:14;101212.78;;;7.68;100.00
8286;BME280;4181;43.416;24.598;2022-12-31T04:35:39;101224.06;;;7.65;100.00
8286;BME280;4181;43.416;24.598;2022-12-31T04:38:04;101226.31;;;7.55;100.00
8286;BME280;4181;43.416;24.598;2022-12-31T04:40:30;101229.69;;;7.57;100.00
8286;BME280;4181;43.416;24.598;2022-12-31T04:42:56;101222.16;;;7.46;100.00
8286;BME280;4181;43.416;24.598;2022-12-31T04:45:21;101213.16;;;7.52;100.00
8286;BME280;4181;43.416;24.598;2022-12-31T04:47:47;101212.13;;;7.59;100.00
8286;BME280;4181;43.416;24.598;2022-12-31T04:50:12;101213.41;;;7.63;100.00
8286;BME280;4181;43.416;24.598;2022-12-31T04:52:37;101220.91;;;7.55;100.00
8286;BME280;4181;43.416;24.598;2022-12-31T04:55:03;101227.97;;;7.49;100.00
8286;BME280;4181;43.416;24.598;2022-12-31T04:57:29;101226.91;;;7.31;100.00
8286;BME280;4181;43.416;24.598;2022-12-31T04:59:54;101224.34;;;7.29;100.00
8286;BME280;4181;43.416;24.598;2022-12-31T05:02:19;101222.91;;;7.27;100.00
8286;BME280;4181;43.416;24.598;2022-12-31T05:04:45;101227.50;;;7.26;100.00
8286;BME280;4181;43.416;24.598;2022-12-31T05:07:10;101232.47;;;7.23;100.00
8286;BME280;4181;43.416;24.598;2022-12-31T05:09:36;101228.72;;;7.17;100.00
8286;BME280;4181;43.416;24.598;2022-12-31T05:12:01;101231.66;;;7.16;100.00
8286;BME280;4181;43.416;24.598;2022-12-31T05:14:27;101229.50;;;7.05;100.00
8286;BME280;4181;43.416;24.598;2022-12-31T05:16:52;101229.47;;;6.98;100.00
8286;BME280;4181;43.416;24.598;2022-12-31T05:19:17;101232.38;;;6.97;100.00
8286;BME280;4181;43.416;24.598;2022-12-31T05:21:43;101234.28;;;7.03;100.00
8286;BME280;4181;43.416;24.598;2022-12-31T05:24:28;101225.34;;;7.09;100.00
8286;BME280;4181;43.416;24.598;2022-12-31T05:26:54;101238.72;;;7.17;100.00
8286;BME280;4181;43.416;24.598;2022-12-31T05:29:19;101230.59;;;7.17;100.00
8286;BME280;4181;43.416;24.598;2022-12-31T05:31:45;101240.97;;;7.07;100.00
8286;BME280;4181;43.416;24.598;2022-12-31T05:34:10;101251.63;;;7.08;100.00
8286;BME280;4181;43.416;24.598;2022-12-31T05:36:40;101239.19;;;7.27;100.00
8286;BME280;4181;43.416;24.598;2022-12-31T05:39:05;101243.41;;;7.36;100.00
8286;BME280;4181;43.416;24.598;2022-12-31T05:41:30;101249.25;;;7.39;100.00
8286;BME280;4181;43.416;24.598;2022-12-31T05:43:56;101261.53;;;7.29;100.00
8286;BME280;4181;43.416;24.598;2022-12-31T05:46:21;101264.78;;;7.11;100.00
8286;BME280;4181;43.416;24.598;2022-12-31T05:48:47;101272.13;;;7.11;100.00
8286;BME280;4181;43.416;24.598;2022-12-31T05:51:13;101263.56;;;7.14;100.00
8286;BME280;4181;43.416;24.598;2022-12-31T05:53:38;101269.63;;;7.16;100.00
8286;BME280;4181;43.416;24.598;2022-12-31T05:56:04;101267.19;;;7.27;100.00
8286;BME280;4181;43.416;24.598;2022-12-31T05:58:29;101264.84;;;7.24;100.00
8286;BME280;4181;43.416;24.598;2022-12-31T06:00:55;101248.19;;;7.27;100.00
8286;BME280;4181;43.416;24.598;2022-12-31T06:03:23;101247.16;;;7.35;100.00
8286;BME280;4181;43.416;24.598;2022-12-31T06:05:49;101245.50;;;7.40;100.00
8286;BME280;4181;43.416;24.598;2022-12-31T06:08:14;101246.63;;;7.65;100.00
8286;BME280;4181;43.416;24.598;2022-12-31T06:10:41;101251.69;;;7.88;100.00
8286;BME280;4181;43.416;24.598;2022-12-31T06:13:07;101255.25;;;8.08;100.00
8286;BME280;4181;43.416;24.598;2022-12-31T06:15:36;101272.88;;;8.32;100.00
8286;BME280;4181;43.416;24.598;2022-12-31T06:18:01;101275.78;;;8.43;100.00
8286;BME280;4181;43.416;24.598;2022-12-31T06:20:26;101284.78;;;8.57;100.00
8286;BME280;4181;43.416;24.598;2022-12-31T06:22:52;101271.16;;;8.76;100.00
8286;BME280;4181;43.416;24.598;2022-12-31T06:25:17;101282.03;;;8.89;100.00
8286;BME280;4181;43.416;24.598;2022-12-31T06:27:43;101281.63;;;8.92;100.00
8286;BME280;4181;43.416;24.598;2022-12-31T06:30:09;101285.75;;;9.08;100.00
8286;BME280;4181;43.416;24.598;2022-12-31T06:32:34;101274.19;;;9.26;100.00
8286;BME280;4181;43.416;24.598;2022-12-31T06:35:00;101282.00;;;9.53;100.00
8286;BME280;4181;43.416;24.598;2022-12-31T06:37:25;101284.41;;;9.81;100.00
8286;BME280;4181;43.416;24.598;2022-12-31T06:39:51;101293.31;;;10.01;100.00
8286;BME280;4181;43.416;24.598;2022-12-31T06:42:16;101300.97;;;9.79;100.00
8286;BME280;4181;43.416;24.598;2022-12-31T06:44:42;101301.25;;;10.09;100.00
8286;BME280;4181;43.416;24.598;2022-12-31T06:47:07;101298.16;;;10.30;100.00
8286;BME280;4181;43.416;24.598;2022-12-31T06:49:32;101292.50;;;10.56;100.00
8286;BME280;4181;43.416;24.598;2022-12-31T06:51:58;101304.50;;;10.73;100.00
8286;BME280;4181;43.416;24.598;2022-12-31T06:54:23;101307.13;;;10.86;100.00
8286;BME280;4181;43.416;24.598;2022-12-31T06:56:50;101325.34;;;10.92;100.00
8286;BME280;4181;43.416;24.598;2022-12-31T06:59:25;101332.91;;;10.90;100.00
8286;BME280;4181;43.416;24.598;2022-12-31T07:02:19;101317.31;;;11.15;100.00
8286;BME280;4181;43.416;24.598;2022-12-31T07:05:19;101317.03;;;11.41;100.00
8286;BME280;4181;43.416;24.598;2022-12-31T07:13:06;101318.66;;;11.97;100.00
8286;BME280;4181;43.416;24.598;2022-12-31T07:18:39;101323.13;;;12.62;100.00
8286;BME280;4181;43.416;24.598;2022-12-31T07:21:12;101312.44;;;12.95;100.00
8286;BME280;4181;43.416;24.598;2022-12-31T07:23:39;101318.53;;;13.09;100.00
8286;BME280;4181;43.416;24.598;2022-12-31T07:26:17;101318.53;;;13.20;100.00
8286;BME280;4181;43.416;24.598;2022-12-31T07:31:31;101326.47;;;13.56;100.00
8286;BME280;4181;43.416;24.598;2022-12-31T07:34:02;101335.50;;;13.68;100.00
8286;BME280;4181;43.416;24.598;2022-12-31T07:39:24;101332.72;;;13.80;100.00
8286;BME280;4181;43.416;24.598;2022-12-31T07:44:39;101342.22;;;13.89;100.00
8286;BME280;4181;43.416;24.598;2022-12-31T07:47:23;101346.84;;;13.49;100.00
8286;BME280;4181;43.416;24.598;2022-12-31T07:49:50;101351.19;;;13.45;100.00
8286;BME280;4181;43.416;24.598;2022-12-31T07:52:16;101355.69;;;13.51;100.00
8286;BME280;4181;43.416;24.598;2022-12-31T07:54:42;101368.09;;;13.42;100.00
8286;BME280;4181;43.416;24.598;2022-12-31T07:57:10;101373.00;;;13.28;100.00
8286;BME280;4181;43.416;24.598;2022-12-31T08:00:05;101362.94;;;13.45;100.00
8286;BME280;4181;43.416;24.598;2022-12-31T08:05:25;101368.63;;;13.78;100.00
8286;BME280;4181;43.416;24.598;2022-12-31T08:11:03;101357.50;;;14.25;100.00
8286;BME280;4181;43.416;24.598;2022-12-31T08:13:32;101348.56;;;14.46;100.00
8286;BME280;4181;43.416;24.598;2022-12-31T08:15:59;101345.53;;;14.75;100.00
8286;BME280;4181;43.416;24.598;2022-12-31T08:18:26;101332.75;;;15.02;100.00
8286;BME280;4181;43.416;24.598;2022-12-31T08:21:03;101337.75;;;15.22;100.00
8286;BME280;4181;43.416;24.598;2022-12-31T08:39:41;101329.59;;;15.87;100.00
8286;BME280;4181;43.416;24.598;2022-12-31T08:42:21;101332.19;;;15.98;100.00
8286;BME280;4181;43.416;24.598;2022-12-31T08:45:11;101321.47;;;16.23;100.00
8286;BME280;4181;43.416;24.598;2022-12-31T08:50:19;101307.13;;;16.80;100.00
8286;BME280;4181;43.416;24.598;2022-12-31T08:52:46;101308.91;;;17.01;100.00
8286;BME280;4181;43.416;24.598;2022-12-31T08:55:16;101304.69;;;17.25;100.00
8286;BME280;4181;43.416;24.598;2022-12-31T09:00:18;101281.56;;;17.98;100.00
8286;BME280;4181;43.416;24.598;2022-12-31T09:05:35;101277.47;;;18.25;100.00
8286;BME280;4181;43.416;24.598;2022-12-31T09:08:12;101272.81;;;18.36;100.00
8286;BME280;4181;43.416;24.598;2022-12-31T09:10:57;101267.31;;;18.61;100.00
8286;BME280;4181;43.416;24.598;2022-12-31T09:13:52;101266.47;;;18.75;100.00
8286;BME280;4181;43.416;24.598;2022-12-31T09:17:01;101252.34;;;18.87;100.00
8286;BME280;4181;43.416;24.598;2022-12-31T09:19:28;101262.56;;;19.02;100.00
8286;BME280;4181;43.416;24.598;2022-12-31T09:21:54;101260.03;;;19.15;100.00
8286;BME280;4181;43.416;24.598;2022-12-31T09:24:20;101247.56;;;19.28;100.00
8286;BME280;4181;43.416;24.598;2022-12-31T09:27:07;101256.41;;;19.30;100.00
8286;BME280;4181;43.416;24.598;2022-12-31T09:32:11;101249.47;;;19.42;100.00
8286;BME280;4181;43.416;24.598;2022-12-31T09:34:55;101253.63;;;19.35;100.00
8286;BME280;4181;43.416;24.598;2022-12-31T09:37:41;101252.22;;;19.47;100.00
8286;BME280;4181;43.416;24.598;2022-12-31T09:40:29;101243.00;;;19.67;100.00
8286;BME280;4181;43.416;24.598;2022-12-31T09:51:53;101237.41;;;19.77;100.00
8286;BME280;4181;43.416;24.598;2022-12-31T09:57:15;101220.63;;;20.02;100.00
8286;BME280;4181;43.416;24.598;2022-12-31T09:59:53;101226.38;;;20.16;100.00
8286;BME280;4181;43.416;24.598;2022-12-31T10:05:49;101215.56;;;20.19;100.00
8286;BME280;4181;43.416;24.598;2022-12-31T10:30:14;101180.41;;;21.00;100.00
8286;BME280;4181;43.416;24.598;2022-12-31T10:38:25;101170.63;;;21.26;100.00
8286;BME280;4181;43.416;24.598;2022-12-31T10:47:09;101164.59;;;21.62;100.00
8286;BME280;4181;43.416;24.598;2022-12-31T10:58:07;101163.59;;;21.76;100.00
8286;BME280;4181;43.416;24.598;2022-12-31T11:00:50;101148.34;;;22.11;100.00
8286;BME280;4181;43.416;24.598;2022-12-31T11:06:53;101151.78;;;22.35;100.00
8286;BME280;4181;43.416;24.598;2022-12-31T11:12:01;101149.44;;;22.42;100.00
8286;BME280;4181;43.416;24.598;2022-12-31T11:17:33;101139.78;;;22.39;100.00
8286;BME280;4181;43.416;24.598;2022-12-31T11:31:22;101140.78;;;22.43;100.00
8286;BME280;4181;43.416;24.598;2022-12-31T11:34:40;101140.00;;;22.43;100.00
8286;BME280;4181;43.416;24.598;2022-12-31T11:50:43;101140.03;;;22.70;100.00
8286;BME280;4181;43.416;24.598;2022-12-31T11:56:17;101145.22;;;22.63;100.00
8286;BME280;4181;43.416;24.598;2022-12-31T11:58:48;101153.91;;;22.43;100.00
8286;BME280;4181;43.416;24.598;2022-12-31T12:01:19;101147.38;;;22.34;100.00
8286;BME280;4181;43.416;24.598;2022-12-31T12:03:46;101149.41;;;22.28;100.00
8286;BME280;4181;43.416;24.598;2022-12-31T12:06:15;101147.16;;;22.30;100.00
8286;BME280;4181;43.416;24.598;2022-12-31T12:08:41;101151.69;;;22.26;100.00
8286;BME280;4181;43.416;24.598;2022-12-31T12:11:23;101145.59;;;22.24;100.00
8286;BME280;4181;43.416;24.598;2022-12-31T12:13:49;101152.03;;;22.06;100.00
8286;BME280;4181;43.416;24.598;2022-12-31T12:16:15;101153.13;;;22.05;100.00
8286;BME280;4181;43.416;24.598;2022-12-31T12:19:06;101161.63;;;21.95;100.00
8286;BME280;4181;43.416;24.598;2022-12-31T12:21:45;101161.03;;;21.98;100.00
8286;BME280;4181;43.416;24.598;2022-12-31T12:26:47;101174.53;;;21.68;100.00
8286;BME280;4181;43.416;24.598;2022-12-31T12:31:39;101181.34;;;21.57;100.00
8286;BME280;4181;43.416;24.598;2022-12-31T12:34:05;101193.63;;;21.32;100.00
8286;BME280;4181;43.416;24.598;2022-12-31T12:36:45;101182.94;;;21.20;100.00
8286;BME280;4181;43.416;24.598;2022-12-31T12:39:19;101191.03;;;21.17;100.00
8286;BME280;4181;43.416;24.598;2022-12-31T12:41:45;101184.63;;;21.16;100.00
8286;BME280;4181;43.416;24.598;2022-12-31T12:44:16;101192.88;;;21.03;100.00
8286;BME280;4181;43.416;24.598;2022-12-31T12:46:48;101192.38;;;20.96;100.00
8286;BME280;4181;43.416;24.598;2022-12-31T12:49:25;101188.72;;;21.00;100.00
8286;BME280;4181;43.416;24.598;2022-12-31T12:54:58;101193.88;;;20.83;100.00
8286;BME280;4181;43.416;24.598;2022-12-31T13:00:19;101197.69;;;20.64;100.00
8286;BME280;4181;43.416;24.598;2022-12-31T13:03:13;101198.03;;;20.57;100.00
8286;BME280;4181;43.416;24.598;2022-12-31T13:16:50;101215.63;;;20.04;100.00
8286;BME280;4181;43.416;24.598;2022-12-31T13:22:23;101229.91;;;19.82;100.00
8286;BME280;4181;43.416;24.598;2022-12-31T13:25:02;101229.03;;;19.87;100.00
8286;BME280;4181;43.416;24.598;2022-12-31T13:27:41;101237.09;;;19.78;100.00
8286;BME280;4181;43.416;24.598;2022-12-31T13:30:20;101239.59;;;19.80;100.00
8286;BME280;4181;43.416;24.598;2022-12-31T13:32:50;101247.16;;;19.69;100.00
8286;BME280;4181;43.416;24.598;2022-12-31T13:35:22;101249.06;;;19.74;100.00
8286;BME280;4181;43.416;24.598;2022-12-31T13:37:52;101258.53;;;19.58;100.00
8286;BME280;4181;43.416;24.598;2022-12-31T13:43:37;101240.28;;;19.52;100.00
8286;BME280;4181;43.416;24.598;2022-12-31T13:49:00;101246.44;;;19.29;100.00
8286;BME280;4181;43.416;24.598;2022-12-31T13:51:44;101255.88;;;19.23;100.00
8286;BME280;4181;43.416;24.598;2022-12-31T13:54:57;101244.25;;;19.31;100.00
8286;BME280;4181;43.416;24.598;2022-12-31T14:00:06;101247.38;;;18.94;100.00
8286;BME280;4181;43.416;24.598;2022-12-31T14:05:31;101253.72;;;18.84;100.00
8286;BME280;4181;43.416;24.598;2022-12-31T14:08:00;101256.78;;;18.83;100.00
8286;BME280;4181;43.416;24.598;2022-12-31T14:18:31;101237.72;;;18.66;100.00
8286;BME280;4181;43.416;24.598;2022-12-31T14:26:07;101248.50;;;18.48;100.00
8286;BME280;4181;43.416;24.598;2022-12-31T14:28:42;101241.00;;;18.38;100.00
8286;BME280;4181;43.416;24.598;2022-12-31T14:31:23;101246.25;;;18.30;100.00
8286;BME280;4181;43.416;24.598;2022-12-31T14:39:17;101273.75;;;17.69;100.00
8286;BME280;4181;43.416;24.598;2022-12-31T14:47:43;101275.84;;;17.47;100.00
8286;BME280;4181;43.416;24.598;2022-12-31T14:50:16;101278.06;;;17.45;100.00
8286;BME280;4181;43.416;24.598;2022-12-31T14:55:35;101295.09;;;16.96;100.00
8286;BME280;4181;43.416;24.598;2022-12-31T14:58:18;101290.53;;;16.75;100.00
8286;BME280;4181;43.416;24.598;2022-12-31T15:00:54;101301.88;;;16.47;100.00
8286;BME280;4181;43.416;24.598;2022-12-31T15:09:02;101306.66;;;15.81;100.00
8286;BME280;4181;43.416;24.598;2022-12-31T15:24:42;101323.25;;;15.86;100.00
8286;BME280;4181;43.416;24.598;2022-12-31T15:29:47;101329.91;;;15.69;100.00
8286;BME280;4181;43.416;24.598;2022-12-31T15:32:24;101339.75;;;15.43;100.00
8286;BME280;4181;43.416;24.598;2022-12-31T15:35:43;101347.28;;;14.98;100.00
8286;BME280;4181;43.416;24.598;2022-12-31T15:38:16;101362.06;;;14.64;100.00
8286;BME280;4181;43.416;24.598;2022-12-31T15:40:46;101367.28;;;14.49;100.00
8286;BME280;4181;43.416;24.598;2022-12-31T15:45:50;101382.69;;;14.22;100.00
8286;BME280;4181;43.416;24.598;2022-12-31T15:48:23;101385.69;;;14.20;100.00
8286;BME280;4181;43.416;24.598;2022-12-31T15:50:55;101381.50;;;14.18;100.00
8286;BME280;4181;43.416;24.598;2022-12-31T15:53:32;101384.88;;;14.08;100.00
8286;BME280;4181;43.416;24.598;2022-12-31T15:56:00;101393.22;;;14.13;100.00
8286;BME280;4181;43.416;24.598;2022-12-31T15:58:30;101386.41;;;14.16;100.00
8286;BME280;4181;43.416;24.598;2022-12-31T16:03:33;101401.50;;;14.02;100.00
8286;BME280;4181;43.416;24.598;2022-12-31T16:06:03;101397.66;;;14.02;100.00
8286;BME280;4181;43.416;24.598;2022-12-31T16:08:33;101399.94;;;13.94;100.00
8286;BME280;4181;43.416;24.598;2022-12-31T16:10:59;101397.59;;;13.86;100.00
8286;BME280;4181;43.416;24.598;2022-12-31T16:13:26;101402.38;;;13.79;100.00
8286;BME280;4181;43.416;24.598;2022-12-31T16:16:14;101400.63;;;13.61;100.00
8286;BME280;4181;43.416;24.598;2022-12-31T16:18:43;101397.53;;;13.46;100.00
8286;BME280;4181;43.416;24.598;2022-12-31T16:21:44;101399.78;;;13.49;100.00
8286;BME280;4181;43.416;24.598;2022-12-31T16:24:30;101394.78;;;13.46;100.00
8286;BME280;4181;43.416;24.598;2022-12-31T16:27:00;101394.78;;;13.46;100.00
8286;BME280;4181;43.416;24.598;2022-12-31T16:29:27;101397.28;;;13.59;100.00
8286;BME280;4181;43.416;24.598;2022-12-31T16:31:53;101404.56;;;13.54;100.00
8286;BME280;4181;43.416;24.598;2022-12-31T16:34:23;101409.56;;;13.34;100.00
8286;BME280;4181;43.416;24.598;2022-12-31T16:37:05;101413.63;;;13.08;100.00
8286;BME280;4181;43.416;24.598;2022-12-31T16:39:36;101418.31;;;12.90;100.00
8286;BME280;4181;43.416;24.598;2022-12-31T16:42:16;101416.75;;;12.82;100.00
8286;BME280;4181;43.416;24.598;2022-12-31T16:44:42;101416.31;;;12.55;100.00
8286;BME280;4181;43.416;24.598;2022-12-31T16:47:11;101416.41;;;12.49;100.00
8286;BME280;4181;43.416;24.598;2022-12-31T16:49:40;101426.63;;;12.42;100.00
8286;BME280;4181;43.416;24.598;2022-12-31T16:52:23;101423.06;;;12.41;100.00
8286;BME280;4181;43.416;24.598;2022-12-31T16:54:50;101434.50;;;12.20;100.00
8286;BME280;4181;43.416;24.598;2022-12-31T16:57:20;101433.38;;;12.10;100.00
8286;BME280;4181;43.416;24.598;2022-12-31T16:59:48;101439.75;;;12.04;100.00
8286;BME280;4181;43.416;24.598;2022-12-31T17:02:24;101444.84;;;12.00;100.00
8286;BME280;4181;43.416;24.598;2022-12-31T17:04:52;101442.25;;;12.05;100.00
8286;BME280;4181;43.416;24.598;2022-12-31T17:12:27;101448.59;;;11.70;100.00
8286;BME280;4181;43.416;24.598;2022-12-31T17:15:00;101440.63;;;11.68;100.00
8286;BME280;4181;43.416;24.598;2022-12-31T17:17:27;101439.22;;;11.77;100.00
8286;BME280;4181;43.416;24.598;2022-12-31T17:19:59;101446.75;;;11.82;100.00
8286;BME280;4181;43.416;24.598;2022-12-31T17:22:33;101451.75;;;11.42;100.00
8286;BME280;4181;43.416;24.598;2022-12-31T17:27:58;101462.81;;;11.29;100.00
8286;BME280;4181;43.416;24.598;2022-12-31T17:35:33;101454.91;;;11.21;100.00
8286;BME280;4181;43.416;24.598;2022-12-31T17:38:28;101453.06;;;11.39;100.00
8286;BME280;4181;43.416;24.598;2022-12-31T17:41:26;101450.66;;;11.49;100.00
8286;BME280;4181;43.416;24.598;2022-12-31T17:43:54;101459.75;;;11.43;100.00
8286;BME280;4181;43.416;24.598;2022-12-31T17:46:21;101445.81;;;11.52;100.00